Airport View

Enter AWOS ICAO identifier for current METAR.

ex. KFNL

K04V 200015Z AUTO 31012KT 10SM CLR 16/M12 A3014 RMK AO2

20 Oct 2020 00:24

Frequency: 118.625

Phone: 719-655-2229

Other Area AWOS: KRCV - KMYP - KANK - K7BM

TAF AMD KALS 192241Z 1923/2018 08008KT P6SM SCT200 FM200100 27006KT P6SM SCT250 FM200400 VRB05KT P6SM FEW250